sensor_id;sensor_type;location;lat;lon;timestamp;temperature;humidity
39525;DHT22;25203;50.754;6.978;2023-04-06T00:00:25;-0.10;99.90
39525;DHT22;25203;50.754;6.978;2023-04-06T00:02:26;-0.20;99.90
39525;DHT22;25203;50.754;6.978;2023-04-06T00:04:27;-0.10;99.90
39525;DHT22;25203;50.754;6.978;2023-04-06T00:06:27;-0.20;99.90
39525;DHT22;25203;50.754;6.978;2023-04-06T00:08:29;-0.20;99.90
39525;DHT22;25203;50.754;6.978;2023-04-06T00:10:29;-0.10;99.90
39525;DHT22;25203;50.754;6.978;2023-04-06T00:12:30;-0.10;99.90
39525;DHT22;25203;50.754;6.978;2023-04-06T00:14:31;-0.10;99.90
39525;DHT22;25203;50.754;6.978;2023-04-06T00:16:32;0.00;99.90
39525;DHT22;25203;50.754;6.978;2023-04-06T00:18:32;0.00;99.90
39525;DHT22;25203;50.754;6.978;2023-04-06T00:20:33;0.00;99.90
39525;DHT22;25203;50.754;6.978;2023-04-06T00:22:34;0.20;99.90
39525;DHT22;25203;50.754;6.978;2023-04-06T00:24:34;0.20;99.90
39525;DHT22;25203;50.754;6.978;2023-04-06T00:26:35;0.10;99.90
39525;DHT22;25203;50.754;6.978;2023-04-06T00:28:37;0.10;99.90
39525;DHT22;25203;50.754;6.978;2023-04-06T00:30:38;0.10;99.90
39525;DHT22;25203;50.754;6.978;2023-04-06T00:32:38;0.10;99.90
39525;DHT22;25203;50.754;6.978;2023-04-06T00:34:39;0.00;99.90
39525;DHT22;25203;50.754;6.978;2023-04-06T00:36:39;0.00;99.90
39525;DHT22;25203;50.754;6.978;2023-04-06T00:38:41;0.00;99.90
39525;DHT22;25203;50.754;6.978;2023-04-06T00:40:42;0.10;99.90
39525;DHT22;25203;50.754;6.978;2023-04-06T00:42:44;0.20;99.90
39525;DHT22;25203;50.754;6.978;2023-04-06T00:44:45;0.20;99.90
39525;DHT22;25203;50.754;6.978;2023-04-06T00:46:46;0.40;99.90
39525;DHT22;25203;50.754;6.978;2023-04-06T00:48:46;0.40;99.90
39525;DHT22;25203;50.754;6.978;2023-04-06T00:50:47;0.40;99.90
39525;DHT22;25203;50.754;6.978;2023-04-06T00:52:47;0.30;99.90
39525;DHT22;25203;50.754;6.978;2023-04-06T00:54:49;0.30;99.90
39525;DHT22;25203;50.754;6.978;2023-04-06T00:56:50;0.30;99.90
39525;DHT22;25203;50.754;6.978;2023-04-06T00:58:50;0.20;99.90
39525;DHT22;25203;50.754;6.978;2023-04-06T01:00:51;0.20;99.90
39525;DHT22;25203;50.754;6.978;2023-04-06T01:02:52;0.10;99.90
39525;DHT22;25203;50.754;6.978;2023-04-06T01:04:53;0.10;99.90
39525;DHT22;25203;50.754;6.978;2023-04-06T01:06:54;0.00;99.90
39525;DHT22;25203;50.754;6.978;2023-04-06T01:08:55;-0.10;99.90
39525;DHT22;25203;50.754;6.978;2023-04-06T01:10:56;-0.10;99.90
39525;DHT22;25203;50.754;6.978;2023-04-06T01:12:56;-0.20;99.90
39525;DHT22;25203;50.754;6.978;2023-04-06T01:14:57;-0.30;99.90
39525;DHT22;25203;50.754;6.978;2023-04-06T01:16:58;-0.40;99.90
39525;DHT22;25203;50.754;6.978;2023-04-06T01:19:01;-0.40;99.90
39525;DHT22;25203;50.754;6.978;2023-04-06T01:21:02;-0.50;99.90
39525;DHT22;25203;50.754;6.978;2023-04-06T01:23:02;-0.50;99.90
39525;DHT22;25203;50.754;6.978;2023-04-06T01:25:03;-0.40;99.90
39525;DHT22;25203;50.754;6.978;2023-04-06T01:27:04;-0.40;99.90
39525;DHT22;25203;50.754;6.978;2023-04-06T01:29:05;-0.40;99.90
39525;DHT22;25203;50.754;6.978;2023-04-06T01:31:09;-0.30;99.90
39525;DHT22;25203;50.754;6.978;2023-04-06T01:33:10;-0.30;99.90
39525;DHT22;25203;50.754;6.978;2023-04-06T01:35:10;-0.30;99.90
39525;DHT22;25203;50.754;6.978;2023-04-06T01:37:11;-0.30;99.90
39525;DHT22;25203;50.754;6.978;2023-04-06T01:39:11;-0.30;99.90
39525;DHT22;25203;50.754;6.978;2023-04-06T01:41:12;-0.40;99.90
39525;DHT22;25203;50.754;6.978;2023-04-06T01:43:13;-0.40;99.90
39525;DHT22;25203;50.754;6.978;2023-04-06T01:45:13;-0.20;99.90
39525;DHT22;25203;50.754;6.978;2023-04-06T01:47:14;-0.20;99.90
39525;DHT22;25203;50.754;6.978;2023-04-06T01:49:15;-0.10;99.90
39525;DHT22;25203;50.754;6.978;2023-04-06T01:51:16;0.30;99.90
39525;DHT22;25203;50.754;6.978;2023-04-06T01:53:16;0.80;99.90
39525;DHT22;25203;50.754;6.978;2023-04-06T01:55:17;1.00;99.90
39525;DHT22;25203;50.754;6.978;2023-04-06T01:57:17;1.30;99.90
39525;DHT22;25203;50.754;6.978;2023-04-06T01:59:18;1.40;99.90
39525;DHT22;25203;50.754;6.978;2023-04-06T02:01:18;1.40;99.90
39525;DHT22;25203;50.754;6.978;2023-04-06T02:03:19;1.20;99.90
39525;DHT22;25203;50.754;6.978;2023-04-06T02:05:20;1.10;99.90
39525;DHT22;25203;50.754;6.978;2023-04-06T02:07:21;0.90;99.90
39525;DHT22;25203;50.754;6.978;2023-04-06T02:09:21;0.70;99.90
39525;DHT22;25203;50.754;6.978;2023-04-06T02:11:22;0.50;99.90
39525;DHT22;25203;50.754;6.978;2023-04-06T02:13:22;0.30;99.90
39525;DHT22;25203;50.754;6.978;2023-04-06T02:15:23;0.20;99.90
39525;DHT22;25203;50.754;6.978;2023-04-06T02:17:24;0.20;99.90
39525;DHT22;25203;50.754;6.978;2023-04-06T02:19:24;0.20;99.90
39525;DHT22;25203;50.754;6.978;2023-04-06T02:21:25;0.30;99.90
39525;DHT22;25203;50.754;6.978;2023-04-06T02:23:25;0.40;99.90
39525;DHT22;25203;50.754;6.978;2023-04-06T02:25:26;0.60;99.90
39525;DHT22;25203;50.754;6.978;2023-04-06T02:27:28;0.90;99.90
39525;DHT22;25203;50.754;6.978;2023-04-06T02:29:28;1.20;99.90
39525;DHT22;25203;50.754;6.978;2023-04-06T02:31:29;1.50;99.90
39525;DHT22;25203;50.754;6.978;2023-04-06T02:33:30;1.70;99.90
39525;DHT22;25203;50.754;6.978;2023-04-06T02:35:31;1.90;99.90
39525;DHT22;25203;50.754;6.978;2023-04-06T02:37:31;2.00;99.90
39525;DHT22;25203;50.754;6.978;2023-04-06T02:39:32;2.10;99.90
39525;DHT22;25203;50.754;6.978;2023-04-06T02:41:32;2.10;99.90
39525;DHT22;25203;50.754;6.978;2023-04-06T02:43:33;1.90;99.90
39525;DHT22;25203;50.754;6.978;2023-04-06T02:45:34;1.30;99.90
39525;DHT22;25203;50.754;6.978;2023-04-06T02:47:34;1.00;99.90
39525;DHT22;25203;50.754;6.978;2023-04-06T02:49:35;0.70;99.90
39525;DHT22;25203;50.754;6.978;2023-04-06T02:51:36;0.50;99.90
39525;DHT22;25203;50.754;6.978;2023-04-06T02:53:37;0.40;99.90
39525;DHT22;25203;50.754;6.978;2023-04-06T02:55:37;0.30;99.90
39525;DHT22;25203;50.754;6.978;2023-04-06T02:57:38;0.30;99.90
39525;DHT22;25203;50.754;6.978;2023-04-06T02:59:38;0.20;99.90
39525;DHT22;25203;50.754;6.978;2023-04-06T03:01:39;0.20;99.90
39525;DHT22;25203;50.754;6.978;2023-04-06T03:03:39;0.20;99.90
39525;DHT22;25203;50.754;6.978;2023-04-06T03:05:40;0.20;99.90
39525;DHT22;25203;50.754;6.978;2023-04-06T03:07:41;0.10;99.90
39525;DHT22;25203;50.754;6.978;2023-04-06T03:09:42;0.00;99.90
39525;DHT22;25203;50.754;6.978;2023-04-06T03:11:42;0.00;99.90
39525;DHT22;25203;50.754;6.978;2023-04-06T03:13:44;-0.10;99.90
39525;DHT22;25203;50.754;6.978;2023-04-06T03:15:45;-0.10;99.90
39525;DHT22;25203;50.754;6.978;2023-04-06T03:17:45;-0.10;99.90
39525;DHT22;25203;50.754;6.978;2023-04-06T03:19:46;-0.10;99.90
39525;DHT22;25203;50.754;6.978;2023-04-06T03:21:47;-0.20;99.90
39525;DHT22;25203;50.754;6.978;2023-04-06T03:23:47;-0.20;99.90
39525;DHT22;25203;50.754;6.978;2023-04-06T03:25:51;-0.30;99.90
39525;DHT22;25203;50.754;6.978;2023-04-06T03:27:51;-0.30;99.90
39525;DHT22;25203;50.754;6.978;2023-04-06T03:29:52;-0.40;99.90
39525;DHT22;25203;50.754;6.978;2023-04-06T03:31:53;-0.40;99.90
39525;DHT22;25203;50.754;6.978;2023-04-06T03:33:54;-0.50;99.90
39525;DHT22;25203;50.754;6.978;2023-04-06T03:35:55;-0.70;99.90
39525;DHT22;25203;50.754;6.978;2023-04-06T03:37:56;-0.80;99.90
39525;DHT22;25203;50.754;6.978;2023-04-06T03:39:56;-0.90;99.90
39525;DHT22;25203;50.754;6.978;2023-04-06T03:41:57;-1.00;99.90
39525;DHT22;25203;50.754;6.978;2023-04-06T03:43:57;-1.10;99.90
39525;DHT22;25203;50.754;6.978;2023-04-06T03:45:58;-1.20;99.90
39525;DHT22;25203;50.754;6.978;2023-04-06T03:47:58;-1.20;99.90
39525;DHT22;25203;50.754;6.978;2023-04-06T03:49:59;-1.30;99.90
39525;DHT22;25203;50.754;6.978;2023-04-06T03:52:00;-1.20;99.90
39525;DHT22;25203;50.754;6.978;2023-04-06T03:54:01;-1.20;99.90
39525;DHT22;25203;50.754;6.978;2023-04-06T03:56:02;-1.20;99.90
39525;DHT22;25203;50.754;6.978;2023-04-06T03:58:02;-1.20;99.90
39525;DHT22;25203;50.754;6.978;2023-04-06T04:00:04;-1.20;99.90
39525;DHT22;25203;50.754;6.978;2023-04-06T04:02:04;-1.10;99.90
39525;DHT22;25203;50.754;6.978;2023-04-06T04:04:05;-1.10;99.90
39525;DHT22;25203;50.754;6.978;2023-04-06T04:06:06;-1.10;99.90
39525;DHT22;25203;50.754;6.978;2023-04-06T04:08:06;-1.10;99.90
39525;DHT22;25203;50.754;6.978;2023-04-06T04:10:07;-1.10;99.90
39525;DHT22;25203;50.754;6.978;2023-04-06T04:12:08;-1.10;99.90
39525;DHT22;25203;50.754;6.978;2023-04-06T04:14:09;-1.20;99.90
39525;DHT22;25203;50.754;6.978;2023-04-06T04:16:09;-1.20;99.90
39525;DHT22;25203;50.754;6.978;2023-04-06T04:18:10;-1.20;99.90
39525;DHT22;25203;50.754;6.978;2023-04-06T04:20:11;-1.30;99.90
39525;DHT22;25203;50.754;6.978;2023-04-06T04:22:11;-1.30;99.90
39525;DHT22;25203;50.754;6.978;2023-04-06T04:24:13;-1.30;99.90
39525;DHT22;25203;50.754;6.978;2023-04-06T04:26:13;-1.30;99.90
39525;DHT22;25203;50.754;6.978;2023-04-06T04:28:14;-1.20;99.90
39525;DHT22;25203;50.754;6.978;2023-04-06T04:30:14;-1.20;99.90
39525;DHT22;25203;50.754;6.978;2023-04-06T04:32:15;-1.10;99.90
39525;DHT22;25203;50.754;6.978;2023-04-06T04:34:16;-1.10;99.90
39525;DHT22;25203;50.754;6.978;2023-04-06T04:36:18;-1.10;99.90
39525;DHT22;25203;50.754;6.978;2023-04-06T04:38:19;-1.20;99.90
39525;DHT22;25203;50.754;6.978;2023-04-06T04:40:19;-1.20;99.90
39525;DHT22;25203;50.754;6.978;2023-04-06T04:42:21;-1.20;99.90
39525;DHT22;25203;50.754;6.978;2023-04-06T04:44:22;-1.20;99.90
39525;DHT22;25203;50.754;6.978;2023-04-06T04:46:22;-1.20;99.90
39525;DHT22;25203;50.754;6.978;2023-04-06T04:48:23;-1.20;99.90
39525;DHT22;25203;50.754;6.978;2023-04-06T04:50:24;-1.30;99.90
39525;DHT22;25203;50.754;6.978;2023-04-06T04:52:24;-1.40;99.90
39525;DHT22;25203;50.754;6.978;2023-04-06T04:54:25;-1.40;99.90
39525;DHT22;25203;50.754;6.978;2023-04-06T04:56:26;-1.50;99.90
39525;DHT22;25203;50.754;6.978;2023-04-06T04:58:27;-1.60;99.90
39525;DHT22;25203;50.754;6.978;2023-04-06T05:00:28;-1.60;99.90
39525;DHT22;25203;50.754;6.978;2023-04-06T05:02:28;-1.60;99.90
39525;DHT22;25203;50.754;6.978;2023-04-06T05:04:29;-1.60;99.90
39525;DHT22;25203;50.754;6.978;2023-04-06T05:06:30;-1.60;99.90
39525;DHT22;25203;50.754;6.978;2023-04-06T05:08:31;-1.60;99.90
39525;DHT22;25203;50.754;6.978;2023-04-06T05:10:32;-1.50;99.90
39525;DHT22;25203;50.754;6.978;2023-04-06T05:12:32;-1.50;99.90
39525;DHT22;25203;50.754;6.978;2023-04-06T05:14:33;-1.50;99.90
39525;DHT22;25203;50.754;6.978;2023-04-06T05:16:34;-1.40;99.90
39525;DHT22;25203;50.754;6.978;2023-04-06T05:18:35;-1.30;99.90
39525;DHT22;25203;50.754;6.978;2023-04-06T05:20:36;-1.20;99.90
39525;DHT22;25203;50.754;6.978;2023-04-06T05:22:36;-1.20;99.90
39525;DHT22;25203;50.754;6.978;2023-04-06T05:24:37;-1.10;99.90
39525;DHT22;25203;50.754;6.978;2023-04-06T05:26:38;-1.10;99.90
39525;DHT22;25203;50.754;6.978;2023-04-06T05:28:39;-1.10;99.90
39525;DHT22;25203;50.754;6.978;2023-04-06T05:30:39;-1.10;99.90
39525;DHT22;25203;50.754;6.978;2023-04-06T05:32:40;-1.10;99.90
39525;DHT22;25203;50.754;6.978;2023-04-06T05:34:43;-1.10;99.90
39525;DHT22;25203;50.754;6.978;2023-04-06T05:36:43;-1.00;99.90
39525;DHT22;25203;50.754;6.978;2023-04-06T05:38:44;-0.90;99.90
39525;DHT22;25203;50.754;6.978;2023-04-06T05:40:44;-0.80;99.90
39525;DHT22;25203;50.754;6.978;2023-04-06T05:42:45;-0.60;99.90
39525;DHT22;25203;50.754;6.978;2023-04-06T05:44:47;-0.50;99.90
39525;DHT22;25203;50.754;6.978;2023-04-06T05:46:47;-0.40;99.90
39525;DHT22;25203;50.754;6.978;2023-04-06T05:48:48;-0.30;99.90
39525;DHT22;25203;50.754;6.978;2023-04-06T05:50:49;-0.20;99.90
39525;DHT22;25203;50.754;6.978;2023-04-06T05:52:53;-0.10;99.90
39525;DHT22;25203;50.754;6.978;2023-04-06T05:54:54;-0.10;99.90
39525;DHT22;25203;50.754;6.978;2023-04-06T05:56:54;-0.10;99.90
39525;DHT22;25203;50.754;6.978;2023-04-06T05:58:55;0.00;99.90
39525;DHT22;25203;50.754;6.978;2023-04-06T06:01:02;0.10;99.90
39525;DHT22;25203;50.754;6.978;2023-04-06T06:03:03;0.30;99.90
39525;DHT22;25203;50.754;6.978;2023-04-06T06:05:04;0.50;99.90
39525;DHT22;25203;50.754;6.978;2023-04-06T06:07:05;0.70;99.90
39525;DHT22;25203;50.754;6.978;2023-04-06T06:09:06;0.80;99.90
39525;DHT22;25203;50.754;6.978;2023-04-06T06:11:06;1.00;99.90
39525;DHT22;25203;50.754;6.978;2023-04-06T06:13:07;1.20;99.90
39525;DHT22;25203;50.754;6.978;2023-04-06T06:15:08;1.30;99.90
39525;DHT22;25203;50.754;6.978;2023-04-06T06:17:09;1.40;99.90
39525;DHT22;25203;50.754;6.978;2023-04-06T06:19:09;1.50;99.90
39525;DHT22;25203;50.754;6.978;2023-04-06T06:21:10;1.60;99.90
39525;DHT22;25203;50.754;6.978;2023-04-06T06:23:12;1.80;99.90
39525;DHT22;25203;50.754;6.978;2023-04-06T06:25:13;2.00;99.90
39525;DHT22;25203;50.754;6.978;2023-04-06T06:27:13;2.30;99.90
39525;DHT22;25203;50.754;6.978;2023-04-06T06:29:14;2.70;99.90
39525;DHT22;25203;50.754;6.978;2023-04-06T06:31:15;2.90;99.90
39525;DHT22;25203;50.754;6.978;2023-04-06T06:33:17;3.20;99.90
39525;DHT22;25203;50.754;6.978;2023-04-06T06:35:18;3.50;99.90
39525;DHT22;25203;50.754;6.978;2023-04-06T06:37:18;3.70;99.90
39525;DHT22;25203;50.754;6.978;2023-04-06T06:39:19;4.00;99.90
39525;DHT22;25203;50.754;6.978;2023-04-06T06:41:19;4.20;99.90
39525;DHT22;25203;50.754;6.978;2023-04-06T06:43:21;4.40;99.90
39525;DHT22;25203;50.754;6.978;2023-04-06T06:45:21;4.60;99.90
39525;DHT22;25203;50.754;6.978;2023-04-06T06:47:22;4.80;99.90
39525;DHT22;25203;50.754;6.978;2023-04-06T06:49:22;4.90;99.90
39525;DHT22;25203;50.754;6.978;2023-04-06T06:51:23;5.10;99.90
39525;DHT22;25203;50.754;6.978;2023-04-06T06:53:24;5.40;99.90
39525;DHT22;25203;50.754;6.978;2023-04-06T06:55:24;5.90;99.90
39525;DHT22;25203;50.754;6.978;2023-04-06T06:57:27;7.00;98.20
39525;DHT22;25203;50.754;6.978;2023-04-06T06:59:28;8.50;95.10
39525;DHT22;25203;50.754;6.978;2023-04-06T07:01:28;9.50;92.30
39525;DHT22;25203;50.754;6.978;2023-04-06T07:03:29;10.40;91.00
39525;DHT22;25203;50.754;6.978;2023-04-06T07:05:30;11.30;88.80
39525;DHT22;25203;50.754;6.978;2023-04-06T07:07:32;11.90;83.50
39525;DHT22;25203;50.754;6.978;2023-04-06T07:09:33;12.60;82.30
39525;DHT22;25203;50.754;6.978;2023-04-06T07:11:34;13.00;80.20
39525;DHT22;25203;50.754;6.978;2023-04-06T07:13:35;13.60;77.10
39525;DHT22;25203;50.754;6.978;2023-04-06T07:15:35;14.00;74.10
39525;DHT22;25203;50.754;6.978;2023-04-06T07:17:37;14.40;71.00
39525;DHT22;25203;50.754;6.978;2023-04-06T07:19:38;14.00;71.50
39525;DHT22;25203;50.754;6.978;2023-04-06T07:21:38;13.50;72.50
39525;DHT22;25203;50.754;6.978;2023-04-06T07:23:39;12.70;73.20
39525;DHT22;25203;50.754;6.978;2023-04-06T07:25:40;11.90;74.60
39525;DHT22;25203;50.754;6.978;2023-04-06T07:27:41;11.50;76.70
39525;DHT22;25203;50.754;6.978;2023-04-06T07:29:41;11.40;77.40
39525;DHT22;25203;50.754;6.978;2023-04-06T07:31:42;11.40;79.10
39525;DHT22;25203;50.754;6.978;2023-04-06T07:33:42;11.60;77.00
39525;DHT22;25203;50.754;6.978;2023-04-06T07:35:43;11.60;76.50
39525;DHT22;25203;50.754;6.978;2023-04-06T07:37:44;11.70;76.90
39525;DHT22;25203;50.754;6.978;2023-04-06T07:39:44;12.00;75.90
39525;DHT22;25203;50.754;6.978;2023-04-06T07:41:45;12.30;75.20
39525;DHT22;25203;50.754;6.978;2023-04-06T07:43:46;13.40;75.40
39525;DHT22;25203;50.754;6.978;2023-04-06T07:45:46;14.40;72.70
39525;DHT22;25203;50.754;6.978;2023-04-06T07:47:47;15.30;70.30
39525;DHT22;25203;50.754;6.978;2023-04-06T07:49:48;16.10;67.60
39525;DHT22;25203;50.754;6.978;2023-04-06T07:51:48;17.40;65.90
39525;DHT22;25203;50.754;6.978;2023-04-06T07:53:50;18.00;63.00
39525;DHT22;25203;50.754;6.978;2023-04-06T07:55:51;18.40;60.50
39525;DHT22;25203;50.754;6.978;2023-04-06T07:57:51;17.70;60.40
39525;DHT22;25203;50.754;6.978;2023-04-06T07:59:52;17.90;61.50
39525;DHT22;25203;50.754;6.978;2023-04-06T08:01:53;17.30;60.70
39525;DHT22;25203;50.754;6.978;2023-04-06T08:03:54;16.80;60.90
39525;DHT22;25203;50.754;6.978;2023-04-06T08:05:55;16.60;61.10
39525;DHT22;25203;50.754;6.978;2023-04-06T08:07:56;16.50;63.20
39525;DHT22;25203;50.754;6.978;2023-04-06T08:09:57;17.50;60.80
39525;DHT22;25203;50.754;6.978;2023-04-06T08:11:57;18.30;60.80
39525;DHT22;25203;50.754;6.978;2023-04-06T08:13:58;20.10;58.30
39525;DHT22;25203;50.754;6.978;2023-04-06T08:15:59;21.90;56.90
39525;DHT22;25203;50.754;6.978;2023-04-06T08:18:00;23.40;54.40
39525;DHT22;25203;50.754;6.978;2023-04-06T08:20:01;23.90;51.30
39525;DHT22;25203;50.754;6.978;2023-04-06T08:22:03;22.60;51.30
39525;DHT22;25203;50.754;6.978;2023-04-06T08:24:04;21.30;52.20
39525;DHT22;25203;50.754;6.978;2023-04-06T08:26:06;20.50;53.00
39525;DHT22;25203;50.754;6.978;2023-04-06T08:28:06;20.40;52.30
39525;DHT22;25203;50.754;6.978;2023-04-06T08:30:07;20.60;53.20
39525;DHT22;25203;50.754;6.978;2023-04-06T08:32:08;20.70;52.70
39525;DHT22;25203;50.754;6.978;2023-04-06T08:34:08;21.20;52.80
39525;DHT22;25203;50.754;6.978;2023-04-06T08:36:13;21.10;52.50
39525;DHT22;25203;50.754;6.978;2023-04-06T08:38:14;21.00;52.10
39525;DHT22;25203;50.754;6.978;2023-04-06T08:40:15;20.80;52.00
39525;DHT22;25203;50.754;6.978;2023-04-06T08:42:20;19.80;52.70
39525;DHT22;25203;50.754;6.978;2023-04-06T08:44:21;20.10;53.30
39525;DHT22;25203;50.754;6.978;2023-04-06T08:46:23;20.70;52.40
39525;DHT22;25203;50.754;6.978;2023-04-06T08:48:29;20.70;51.70
39525;DHT22;25203;50.754;6.978;2023-04-06T08:50:30;20.20;52.40
39525;DHT22;25203;50.754;6.978;2023-04-06T08:52:32;19.90;52.80
39525;DHT22;25203;50.754;6.978;2023-04-06T08:54:34;19.60;52.70
39525;DHT22;25203;50.754;6.978;2023-04-06T08:56:38;19.90;53.50
39525;DHT22;25203;50.754;6.978;2023-04-06T08:58:39;20.90;54.30
39525;DHT22;25203;50.754;6.978;2023-04-06T09:00:41;21.30;51.40
39525;DHT22;25203;50.754;6.978;2023-04-06T09:02:43;21.30;52.40
39525;DHT22;25203;50.754;6.978;2023-04-06T09:04:49;20.60;51.80
39525;DHT22;25203;50.754;6.978;2023-04-06T09:06:52;19.30;52.70
39525;DHT22;25203;50.754;6.978;2023-04-06T09:08:53;19.00;54.00
39525;DHT22;25203;50.754;6.978;2023-04-06T09:10:55;18.80;55.10
39525;DHT22;25203;50.754;6.978;2023-04-06T09:13:05;18.50;54.40
39525;DHT22;25203;50.754;6.978;2023-04-06T09:15:06;17.70;56.70
39525;DHT22;25203;50.754;6.978;2023-04-06T09:17:21;16.60;56.00
39525;DHT22;25203;50.754;6.978;2023-04-06T09:19:22;15.90;58.10
39525;DHT22;25203;50.754;6.978;2023-04-06T09:21:23;15.80;59.60
39525;DHT22;25203;50.754;6.978;2023-04-06T09:23:23;15.60;58.70
39525;DHT22;25203;50.754;6.978;2023-04-06T09:25:24;15.20;57.70
39525;DHT22;25203;50.754;6.978;2023-04-06T09:27:32;15.30;59.30
39525;DHT22;25203;50.754;6.978;2023-04-06T09:29:33;15.00;57.80
39525;DHT22;25203;50.754;6.978;2023-04-06T09:31:34;14.70;58.70
39525;DHT22;25203;50.754;6.978;2023-04-06T09:33:37;14.70;59.90
39525;DHT22;25203;50.754;6.978;2023-04-06T09:35:39;14.90;60.70
39525;DHT22;25203;50.754;6.978;2023-04-06T09:37:39;15.50;59.80
39525;DHT22;25203;50.754;6.978;2023-04-06T09:39:40;16.60;59.70
39525;DHT22;25203;50.754;6.978;2023-04-06T09:41:41;17.20;57.20
39525;DHT22;25203;50.754;6.978;2023-04-06T09:43:41;16.90;56.10
39525;DHT22;25203;50.754;6.978;2023-04-06T09:45:42;16.60;57.30
39525;DHT22;25203;50.754;6.978;2023-04-06T09:47:44;16.20;56.90
39525;DHT22;25203;50.754;6.978;2023-04-06T09:49:47;15.60;58.40
39525;DHT22;25203;50.754;6.978;2023-04-06T09:51:55;15.50;59.90
39525;DHT22;25203;50.754;6.978;2023-04-06T09:53:57;15.80;59.30
39525;DHT22;25203;50.754;6.978;2023-04-06T09:56:03;15.80;59.10
39525;DHT22;25203;50.754;6.978;2023-04-06T09:58:15;15.40;57.30
39525;DHT22;25203;50.754;6.978;2023-04-06T10:00:22;15.50;59.50
39525;DHT22;25203;50.754;6.978;2023-04-06T10:05:23;15.20;57.80
39525;DHT22;25203;50.754;6.978;2023-04-06T10:07:28;15.20;59.80
39525;DHT22;25203;50.754;6.978;2023-04-06T10:09:29;14.70;59.80
39525;DHT22;25203;50.754;6.978;2023-04-06T10:11:36;14.60;61.20
39525;DHT22;25203;50.754;6.978;2023-04-06T10:13:36;14.40;60.40
39525;DHT22;25203;50.754;6.978;2023-04-06T10:15:42;14.40;61.90
39525;DHT22;25203;50.754;6.978;2023-04-06T10:17:43;15.00;58.70
39525;DHT22;25203;50.754;6.978;2023-04-06T10:19:52;14.90;59.20
39525;DHT22;25203;50.754;6.978;2023-04-06T10:21:56;14.80;58.30
39525;DHT22;25203;50.754;6.978;2023-04-06T10:24:02;14.90;58.70
39525;DHT22;25203;50.754;6.978;2023-04-06T10:26:16;14.60;59.70
39525;DHT22;25203;50.754;6.978;2023-04-06T10:28:19;14.20;60.40
39525;DHT22;25203;50.754;6.978;2023-04-06T10:30:20;14.10;59.70
39525;DHT22;25203;50.754;6.978;2023-04-06T10:32:32;14.20;61.40
39525;DHT22;25203;50.754;6.978;2023-04-06T10:34:35;14.30;60.00
39525;DHT22;25203;50.754;6.978;2023-04-06T10:36:36;14.60;62.30
39525;DHT22;25203;50.754;6.978;2023-04-06T10:38:38;14.70;61.50
39525;DHT22;25203;50.754;6.978;2023-04-06T10:40:40;14.80;60.00
39525;DHT22;25203;50.754;6.978;2023-04-06T10:42:43;14.70;61.10
39525;DHT22;25203;50.754;6.978;2023-04-06T10:44:44;14.40;62.00
39525;DHT22;25203;50.754;6.978;2023-04-06T10:46:58;14.10;62.40
39525;DHT22;25203;50.754;6.978;2023-04-06T10:49:11;13.60;60.70
39525;DHT22;25203;50.754;6.978;2023-04-06T10:51:17;13.70;63.60
39525;DHT22;25203;50.754;6.978;2023-04-06T10:53:22;13.90;62.90
39525;DHT22;25203;50.754;6.978;2023-04-06T10:55:23;14.20;62.00
39525;DHT22;25203;50.754;6.978;2023-04-06T10:57:28;14.10;59.60
39525;DHT22;25203;50.754;6.978;2023-04-06T10:59:29;13.90;61.30
39525;DHT22;25203;50.754;6.978;2023-04-06T11:01:30;13.90;60.80
39525;DHT22;25203;50.754;6.978;2023-04-06T11:03:31;14.00;60.90
39525;DHT22;25203;50.754;6.978;2023-04-06T11:05:32;14.20;62.00
39525;DHT22;25203;50.754;6.978;2023-04-06T11:07:33;14.30;60.60
39525;DHT22;25203;50.754;6.978;2023-04-06T11:09:33;14.20;62.00
39525;DHT22;25203;50.754;6.978;2023-04-06T11:11:38;14.00;62.40
39525;DHT22;25203;50.754;6.978;2023-04-06T11:13:41;13.70;62.30
39525;DHT22;25203;50.754;6.978;2023-04-06T11:15:42;13.60;62.60
39525;DHT22;25203;50.754;6.978;2023-04-06T11:17:43;13.90;62.70
39525;DHT22;25203;50.754;6.978;2023-04-06T11:19:45;14.10;62.40
39525;DHT22;25203;50.754;6.978;2023-04-06T11:21:47;13.80;63.00
39525;DHT22;25203;50.754;6.978;2023-04-06T11:23:48;13.70;62.40
39525;DHT22;25203;50.754;6.978;2023-04-06T11:25:52;13.70;61.90
39525;DHT22;25203;50.754;6.978;2023-04-06T11:27:53;13.90;61.80
39525;DHT22;25203;50.754;6.978;2023-04-06T11:29:54;14.10;63.20
39525;DHT22;25203;50.754;6.978;2023-04-06T11:32:00;13.90;60.60
39525;DHT22;25203;50.754;6.978;2023-04-06T11:34:01;13.80;61.50
39525;DHT22;25203;50.754;6.978;2023-04-06T11:36:02;14.00;61.70
39525;DHT22;25203;50.754;6.978;2023-04-06T11:38:03;14.20;61.80
39525;DHT22;25203;50.754;6.978;2023-04-06T11:40:08;14.30;60.50
39525;DHT22;25203;50.754;6.978;2023-04-06T11:42:09;14.80;61.30
39525;DHT22;25203;50.754;6.978;2023-04-06T11:44:10;15.20;62.30
39525;DHT22;25203;50.754;6.978;2023-04-06T11:46:10;14.70;61.50
39525;DHT22;25203;50.754;6.978;2023-04-06T11:48:19;14.80;65.50
39525;DHT22;25203;50.754;6.978;2023-04-06T11:50:20;14.80;62.70
39525;DHT22;25203;50.754;6.978;2023-04-06T11:52:23;14.70;62.80
39525;DHT22;25203;50.754;6.978;2023-04-06T11:54:35;14.50;62.90
39525;DHT22;25203;50.754;6.978;2023-04-06T11:56:36;14.50;64.40
39525;DHT22;25203;50.754;6.978;2023-04-06T11:58:37;14.40;62.40
39525;DHT22;25203;50.754;6.978;2023-04-06T12:00:37;14.20;63.00
39525;DHT22;25203;50.754;6.978;2023-04-06T12:02:39;14.20;62.20
39525;DHT22;25203;50.754;6.978;2023-04-06T12:04:39;14.20;62.10
39525;DHT22;25203;50.754;6.978;2023-04-06T12:06:40;14.20;63.50
39525;DHT22;25203;50.754;6.978;2023-04-06T12:08:41;14.20;62.30
39525;DHT22;25203;50.754;6.978;2023-04-06T12:10:41;14.40;62.20
39525;DHT22;25203;50.754;6.978;2023-04-06T12:12:42;14.30;63.10
39525;DHT22;25203;50.754;6.978;2023-04-06T12:14:43;14.20;61.40
39525;DHT22;25203;50.754;6.978;2023-04-06T12:16:44;14.00;60.90
39525;DHT22;25203;50.754;6.978;2023-04-06T12:18:44;13.80;61.30
39525;DHT22;25203;50.754;6.978;2023-04-06T12:20:45;13.70;61.50
39525;DHT22;25203;50.754;6.978;2023-04-06T12:22:45;13.70;61.60
39525;DHT22;25203;50.754;6.978;2023-04-06T12:24:46;13.70;62.70
39525;DHT22;25203;50.754;6.978;2023-04-06T12:26:47;13.90;61.60
39525;DHT22;25203;50.754;6.978;2023-04-06T12:28:48;13.90;60.80
39525;DHT22;25203;50.754;6.978;2023-04-06T12:30:48;14.00;62.50
39525;DHT22;25203;50.754;6.978;2023-04-06T12:32:50;13.90;60.90
39525;DHT22;25203;50.754;6.978;2023-04-06T12:34:52;13.70;62.40
39525;DHT22;25203;50.754;6.978;2023-04-06T12:36:53;13.80;62.80
39525;DHT22;25203;50.754;6.978;2023-04-06T12:38:53;13.90;63.40
39525;DHT22;25203;50.754;6.978;2023-04-06T12:40:54;13.90;62.00
39525;DHT22;25203;50.754;6.978;2023-04-06T12:42:54;13.70;62.50
39525;DHT22;25203;50.754;6.978;2023-04-06T12:44:55;13.70;61.00
39525;DHT22;25203;50.754;6.978;2023-04-06T12:46:56;13.70;60.40
39525;DHT22;25203;50.754;6.978;2023-04-06T12:48:57;13.70;63.80
39525;DHT22;25203;50.754;6.978;2023-04-06T12:51:01;13.60;63.80
39525;DHT22;25203;50.754;6.978;2023-04-06T12:53:02;13.30;65.30